V.rusanov — EMAE — position and weather

sailwx.info

Track history (hours):
 
Tides and Currents Weather Stations Pressure Air Temp Water Temp Dewpoint Dewpoint Depression Visibility Wind Speed Wind Dir Waves Ship Positions

V.rusanov

Last reported at 2018-May-16 20:06 UTC. Time now 2018-May-22 19:50 UTC.
Position N 48°04' E 035°06'.

Length 24 m; draft 2.1 m.

Type: Tug. MMSI: 272139500.

Date/timePositionNaut miles runAvg speedWind from/ knotsBaromVisibWave heightAir tempDewpointWater temp
2018-May-16 20:06N 48°04' E 035°06'0 3.7
2018-May-16 20:00N 48°03' E 035°06'2 3.8
2018-May-16 19:30N 48°02' E 035°08'2 3.7
2018-May-16 19:00N 48°00' E 035°08'2 3.9
2018-May-16 18:30N 47°58' E 035°07'2 4.0
2018-May-16 18:00N 47°56' E 035°07'2 4.0
2018-May-16 17:30N 47°54' E 035°07'2 3.8
2018-May-16 17:00N 47°53' E 035°06'0 0.6
2018-May-16 16:30N 47°52' E 035°06'0 0.0
2018-May-16 16:00N 47°52' E 035°06'0 0.0
2018-May-16 15:30N 47°52' E 035°06'0 0.0
2018-May-16 15:00N 47°52' E 035°06'0 0.0
2018-May-16 14:30N 47°52' E 035°06'0 0.0
2018-May-16 14:00N 47°52' E 035°06'1 1.7
2018-May-16 13:30N 47°52' E 035°05'0 0.0
2018-May-16 12:59N 47°52' E 035°05'2 3.3
2018-May-16 12:30N 47°50' E 035°06'2 4.3
2018-May-16 12:01N 47°49' E 035°08'1 1.9
2018-May-16 11:30N 47°48' E 035°09'0 0.1
2018-May-16 11:00N 47°48' E 035°09'1 1.5
2018-May-16 10:31N 47°48' E 035°10'2 3.2
2018-May-16 10:01N 47°46' E 035°09'2 3.1
2018-May-16 09:31N 47°45' E 035°10'1 3.0
2018-May-16 09:01N 47°43' E 035°09'1 2.9
2018-May-16 08:31N 47°42' E 035°08'1 1.5
2018-May-16 08:01N 47°41' E 035°08'1 1.2
2018-May-16 07:29N 47°41' E 035°07'1 2.7
2018-May-16 07:01N 47°39' E 035°07'1 2.8
2018-May-16 06:29N 47°38' E 035°05'1 2.7
2018-May-16 06:01N 47°37' E 035°04'2 3.3
2018-May-16 05:31N 47°36' E 035°03'0 0.5
2018-May-16 05:01N 47°36' E 035°02'1 1.8
2018-May-16 04:30N 47°35' E 035°02'0 0.9
2018-May-16 04:00N 47°35' E 035°03'0 0.0
2018-May-16 03:30N 47°35' E 035°03'0 0.0
2018-May-16 03:01N 47°35' E 035°03'0 0.0
2018-May-16 02:30N 47°35' E 035°03'1 1.2
2018-May-16 02:00N 47°36' E 035°03'0 0.5
2018-May-16 01:30N 47°36' E 035°02'0 0.0
2018-May-16 01:00N 47°36' E 035°02'0 0.0
2018-May-16 00:29N 47°36' E 035°02'0 0.0
2018-May-15 23:57N 47°36' E 035°02'0 0.0
2018-May-15 23:01N 47°36' E 035°02'0 0.0
2018-May-15 23:00N 47°36' E 035°02'0 0.0
2018-May-15 22:30N 47°36' E 035°02'0 0.0
2018-May-15 22:00N 47°36' E 035°02'0 0.0
2018-May-15 21:30N 47°36' E 035°02'0 0.0
2018-May-15 21:00N 47°36' E 035°02'0 0.0
2018-May-15 20:28N 47°36' E 035°02'0 0.0
2018-May-15 20:00N 47°36' E 035°02'0 0.0
2018-May-15 19:29N 47°36' E 035°02'0 0.3
2018-May-15 18:59N 47°36' E 035°03'2 2.9
2018-May-15 18:28N 47°34' E 035°01'  
2018-May-09 12:05N 47°34' E 035°01'0 3.4
2018-May-09 12:00N 47°35' E 035°02'2 3.5
2018-May-09 11:29N 47°36' E 035°03'2 3.4
2018-May-09 11:00N 47°38' E 035°04'2 3.9
2018-May-09 10:30N 47°39' E 035°06'2 3.9
2018-May-09 10:00N 47°41' E 035°07'2 3.9
2018-May-09 09:30N 47°43' E 035°08'2 3.8
2018-May-09 09:00N 47°44' E 035°10'2 4.1
2018-May-09 08:30N 47°46' E 035°09'2 3.7
2018-May-09 08:00N 47°48' E 035°10'1 1.3
2018-May-09 07:30N 47°48' E 035°09'0 0.0
2018-May-09 06:59N 47°48' E 035°09'0 0.0
2018-May-09 06:30N 47°48' E 035°09'0 0.0
2018-May-09 06:00N 47°48' E 035°09'0 0.0
2018-May-09 05:30N 47°48' E 035°09'0 0.2
2018-May-09 05:00N 47°48' E 035°09'2 4.5
2018-May-09 04:30N 47°50' E 035°07'2 4.0
2018-May-09 04:00N 47°51' E 035°05'1 1.2
2018-May-09 03:30N 47°52' E 035°06'0 0.4
2018-May-09 03:00N 47°52' E 035°06'0 0.8
2018-May-09 02:30N 47°52' E 035°06'0 0.0
2018-May-09 02:00N 47°52' E 035°06'0 0.0
2018-May-09 01:30N 47°52' E 035°06'0 0.3
2018-May-09 01:01N 47°52' E 035°06'0 0.1
2018-May-09 00:30N 47°52' E 035°06'0 0.0
2018-May-09 00:00N 47°52' E 035°06'0 0.0
2018-May-08 23:30N 47°52' E 035°06'0 0.0
2018-May-08 23:00N 47°52' E 035°06'0 0.0
2018-May-08 22:30N 47°52' E 035°06'0 0.0
2018-May-08 22:00N 47°52' E 035°06'0 0.0
2018-May-08 21:30N 47°52' E 035°06'0 0.0
2018-May-08 21:00N 47°52' E 035°06'0 0.0
2018-May-08 20:30N 47°52' E 035°06'0 0.0
2018-May-08 20:00N 47°52' E 035°06'0 0.1
2018-May-08 19:30N 47°52' E 035°06'0 0.1
2018-May-08 19:00N 47°52' E 035°06'0 0.0
2018-May-08 18:30N 47°52' E 035°06'0 0.0
2018-May-08 18:00N 47°52' E 035°06'0 0.0
2018-May-08 17:30N 47°52' E 035°06'0 0.0
2018-May-08 17:00N 47°52' E 035°06'0 0.0
2018-May-08 16:30N 47°52' E 035°06'0 0.5
2018-May-08 16:01N 47°52' E 035°06'0 0.3
2018-May-08 15:31N 47°52' E 035°06'0 0.0
2018-May-08 15:00N 47°52' E 035°06'0 0.6
2018-May-08 14:31N 47°52' E 035°06'0 0.0
2018-May-08 14:00N 47°52' E 035°06'0 0.0
2018-May-08 13:30N 47°52' E 035°06'0 0.0
2018-May-08 13:00N 47°52' E 035°06'0 0.0
2018-May-08 12:30N 47°52' E 035°06'0 0.0
2018-May-08 12:00N 47°52' E 035°06'0 0.1
2018-May-08 11:30N 47°52' E 035°06'1 0.3
2018-May-08 07:29N 47°53' E 035°05'1 2.5
2018-May-08 07:00N 47°52' E 035°06'0 0.1
2018-May-08 06:08N 47°52' E 035°06'0 0.1
2018-May-08 06:00N 47°52' E 035°06'0 0.0
2018-May-08 05:17N 47°52' E 035°06'2 2.4
2018-May-08 04:20N 47°53' E 035°09'2 1.6
2018-May-08 02:57N 47°52' E 035°06'0 0.0
2018-May-08 02:30N 47°52' E 035°06'0 0.0
2018-May-08 02:00N 47°52' E 035°06'0 0.0
2018-May-08 01:30N 47°52' E 035°06'0 0.1
2018-May-08 01:00N 47°52' E 035°06'0 0.1
2018-May-08 00:29N 47°52' E 035°06'0 0.0
2018-May-08 00:00N 47°52' E 035°06'0 0.0
2018-May-07 23:30N 47°52' E 035°06'0 0.0
2018-May-07 23:00N 47°52' E 035°06'0 0.0
2018-May-07 22:30N 47°52' E 035°06'0 0.0
2018-May-07 22:00N 47°52' E 035°06'0 0.0
2018-May-07 21:30N 47°52' E 035°06'0 0.0
2018-May-07 21:00N 47°52' E 035°06'0 0.0
2018-May-07 20:30N 47°52' E 035°06'0 0.0
2018-May-07 20:00N 47°52' E 035°06'0 0.0
2018-May-07 19:30N 47°52' E 035°06'0 0.0
2018-May-07 19:00N 47°52' E 035°06'0 0.0
2018-May-07 18:30N 47°52' E 035°06'0 0.0
2018-May-07 18:00N 47°52' E 035°06'0 0.0
2018-May-07 17:25N 47°52' E 035°06'0 0.0
2018-May-07 17:00N 47°52' E 035°06'0 0.0
2018-May-07 16:30N 47°52' E 035°06'0 0.1
2018-May-07 16:00N 47°52' E 035°06'0 0.1
2018-May-07 15:30N 47°52' E 035°06'0 0.0
2018-May-07 15:00N 47°52' E 035°06'0 0.0
2018-May-07 14:30N 47°52' E 035°06'0 0.0
2018-May-07 14:00N 47°52' E 035°06'0 0.0
2018-May-07 13:30N 47°52' E 035°06'0 0.0
2018-May-07 13:00N 47°52' E 035°06'0 0.0
2018-May-07 12:30N 47°52' E 035°06'0 0.0
2018-May-07 12:00N 47°52' E 035°06'0 0.0
2018-May-07 11:30N 47°52' E 035°06'0 0.0
2018-May-07 11:00N 47°52' E 035°06'0 0.0
2018-May-07 10:30N 47°52' E 035°06'0 0.0
2018-May-07 10:00N 47°52' E 035°06'0 0.0
2018-May-07 09:30N 47°52' E 035°06'0 0.0
2018-May-07 09:00N 47°52' E 035°06'0 0.0
2018-May-07 08:30N 47°52' E 035°06'0 0.0
2018-May-07 08:00N 47°52' E 035°06'0 0.0
2018-May-07 07:30N 47°52' E 035°06'0 0.0
2018-May-07 07:00N 47°52' E 035°06'0 0.0
2018-May-07 06:29N 47°52' E 035°06'0 0.0
2018-May-07 05:59N 47°52' E 035°06'0 0.0
2018-May-07 05:30N 47°52' E 035°06'0 0.0
2018-May-07 05:00N 47°52' E 035°06'0 0.0
2018-May-07 04:30N 47°52' E 035°06'0 0.0
2018-May-07 04:00N 47°52' E 035°06'0 0.0
2018-May-07 03:30N 47°52' E 035°06'0 0.0
2018-May-07 03:00N 47°52' E 035°06'0 0.0
2018-May-07 00:58N 47°52' E 035°06'0 0.1
2018-May-07 00:30N 47°52' E 035°06'10 2.4
2018-May-06 20:29N 47°43' E 035°13'  
Track history (hours):
 
Tides and Currents Weather Stations Pressure Air Temp Water Temp Dewpoint Dewpoint Depression Visibility Wind Speed Wind Dir Waves Ship Positions

V.rusanov

Last reported at 2018-May-16 20:06 UTC. Time now 2018-May-22 19:50 UTC.
Position N 48°04' E 035°06'.

Length 24 m; draft 2.1 m.

Type: Tug. MMSI: 272139500.

Date/timePositionNaut miles runAvg speedWind from/ knotsBaromVisibWave heightAir tempDewpointWater temp
2018-May-16 20:06N 48°04' E 035°06'0 3.7
2018-May-16 20:00N 48°03' E 035°06'2 3.8
2018-May-16 19:30N 48°02' E 035°08'2 3.7
2018-May-16 19:00N 48°00' E 035°08'2 3.9
2018-May-16 18:30N 47°58' E 035°07'2 4.0
2018-May-16 18:00N 47°56' E 035°07'2 4.0
2018-May-16 17:30N 47°54' E 035°07'2 3.8
2018-May-16 17:00N 47°53' E 035°06'0 0.6
2018-May-16 16:30N 47°52' E 035°06'0 0.0
2018-May-16 16:00N 47°52' E 035°06'0 0.0
2018-May-16 15:30N 47°52' E 035°06'0 0.0
2018-May-16 15:00N 47°52' E 035°06'0 0.0
2018-May-16 14:30N 47°52' E 035°06'0 0.0
2018-May-16 14:00N 47°52' E 035°06'1 1.7
2018-May-16 13:30N 47°52' E 035°05'0 0.0
2018-May-16 12:59N 47°52' E 035°05'2 3.3
2018-May-16 12:30N 47°50' E 035°06'2 4.3
2018-May-16 12:01N 47°49' E 035°08'1 1.9
2018-May-16 11:30N 47°48' E 035°09'0 0.1
2018-May-16 11:00N 47°48' E 035°09'1 1.5
2018-May-16 10:31N 47°48' E 035°10'2 3.2
2018-May-16 10:01N 47°46' E 035°09'2 3.1
2018-May-16 09:31N 47°45' E 035°10'1 3.0
2018-May-16 09:01N 47°43' E 035°09'1 2.9
2018-May-16 08:31N 47°42' E 035°08'1 1.5
2018-May-16 08:01N 47°41' E 035°08'1 1.2
2018-May-16 07:29N 47°41' E 035°07'1 2.7
2018-May-16 07:01N 47°39' E 035°07'1 2.8
2018-May-16 06:29N 47°38' E 035°05'1 2.7
2018-May-16 06:01N 47°37' E 035°04'2 3.3
2018-May-16 05:31N 47°36' E 035°03'0 0.5
2018-May-16 05:01N 47°36' E 035°02'1 1.8
2018-May-16 04:30N 47°35' E 035°02'0 0.9
2018-May-16 04:00N 47°35' E 035°03'0 0.0
2018-May-16 03:30N 47°35' E 035°03'0 0.0
2018-May-16 03:01N 47°35' E 035°03'0 0.0
2018-May-16 02:30N 47°35' E 035°03'1 1.2
2018-May-16 02:00N 47°36' E 035°03'0 0.5
2018-May-16 01:30N 47°36' E 035°02'0 0.0
2018-May-16 01:00N 47°36' E 035°02'0 0.0
2018-May-16 00:29N 47°36' E 035°02'0 0.0
2018-May-15 23:57N 47°36' E 035°02'0 0.0
2018-May-15 23:01N 47°36' E 035°02'0 0.0
2018-May-15 23:00N 47°36' E 035°02'0 0.0
2018-May-15 22:30N 47°36' E 035°02'0 0.0
2018-May-15 22:00N 47°36' E 035°02'0 0.0
2018-May-15 21:30N 47°36' E 035°02'0 0.0
2018-May-15 21:00N 47°36' E 035°02'0 0.0
2018-May-15 20:28N 47°36' E 035°02'0 0.0
2018-May-15 20:00N 47°36' E 035°02'0 0.0
2018-May-15 19:29N 47°36' E 035°02'0 0.3
2018-May-15 18:59N 47°36' E 035°03'2 2.9
2018-May-15 18:28N 47°34' E 035°01'  
2018-May-09 12:05N 47°34' E 035°01'0 3.4
2018-May-09 12:00N 47°35' E 035°02'2 3.5
2018-May-09 11:29N 47°36' E 035°03'2 3.4
2018-May-09 11:00N 47°38' E 035°04'2 3.9
2018-May-09 10:30N 47°39' E 035°06'2 3.9
2018-May-09 10:00N 47°41' E 035°07'2 3.9
2018-May-09 09:30N 47°43' E 035°08'2 3.8
2018-May-09 09:00N 47°44' E 035°10'2 4.1
2018-May-09 08:30N 47°46' E 035°09'2 3.7
2018-May-09 08:00N 47°48' E 035°10'1 1.3
2018-May-09 07:30N 47°48' E 035°09'0 0.0
2018-May-09 06:59N 47°48' E 035°09'0 0.0
2018-May-09 06:30N 47°48' E 035°09'0 0.0
2018-May-09 06:00N 47°48' E 035°09'0 0.0
2018-May-09 05:30N 47°48' E 035°09'0 0.2
2018-May-09 05:00N 47°48' E 035°09'2 4.5
2018-May-09 04:30N 47°50' E 035°07'2 4.0
2018-May-09 04:00N 47°51' E 035°05'1 1.2
2018-May-09 03:30N 47°52' E 035°06'0 0.4
2018-May-09 03:00N 47°52' E 035°06'0 0.8
2018-May-09 02:30N 47°52' E 035°06'0 0.0
2018-May-09 02:00N 47°52' E 035°06'0 0.0
2018-May-09 01:30N 47°52' E 035°06'0 0.3
2018-May-09 01:01N 47°52' E 035°06'0 0.1
2018-May-09 00:30N 47°52' E 035°06'0 0.0
2018-May-09 00:00N 47°52' E 035°06'0 0.0
2018-May-08 23:30N 47°52' E 035°06'0 0.0
2018-May-08 23:00N 47°52' E 035°06'0 0.0
2018-May-08 22:30N 47°52' E 035°06'0 0.0
2018-May-08 22:00N 47°52' E 035°06'0 0.0
2018-May-08 21:30N 47°52' E 035°06'0 0.0
2018-May-08 21:00N 47°52' E 035°06'0 0.0
2018-May-08 20:30N 47°52' E 035°06'0 0.0
2018-May-08 20:00N 47°52' E 035°06'0 0.1
2018-May-08 19:30N 47°52' E 035°06'0 0.1
2018-May-08 19:00N 47°52' E 035°06'0 0.0
2018-May-08 18:30N 47°52' E 035°06'0 0.0
2018-May-08 18:00N 47°52' E 035°06'0 0.0
2018-May-08 17:30N 47°52' E 035°06'0 0.0
2018-May-08 17:00N 47°52' E 035°06'0 0.0
2018-May-08 16:30N 47°52' E 035°06'0 0.5
2018-May-08 16:01N 47°52' E 035°06'0 0.3
2018-May-08 15:31N 47°52' E 035°06'0 0.0
2018-May-08 15:00N 47°52' E 035°06'0 0.6
2018-May-08 14:31N 47°52' E 035°06'0 0.0
2018-May-08 14:00N 47°52' E 035°06'0 0.0
2018-May-08 13:30N 47°52' E 035°06'0 0.0
2018-May-08 13:00N 47°52' E 035°06'0 0.0
2018-May-08 12:30N 47°52' E 035°06'0 0.0
2018-May-08 12:00N 47°52' E 035°06'0 0.1
2018-May-08 11:30N 47°52' E 035°06'1 0.3
2018-May-08 07:29N 47°53' E 035°05'1 2.5
2018-May-08 07:00N 47°52' E 035°06'0 0.1
2018-May-08 06:08N 47°52' E 035°06'0 0.1
2018-May-08 06:00N 47°52' E 035°06'0 0.0
2018-May-08 05:17N 47°52' E 035°06'2 2.4
2018-May-08 04:20N 47°53' E 035°09'2 1.6
2018-May-08 02:57N 47°52' E 035°06'0 0.0
2018-May-08 02:30N 47°52' E 035°06'0 0.0
2018-May-08 02:00N 47°52' E 035°06'0 0.0
2018-May-08 01:30N 47°52' E 035°06'0 0.1
2018-May-08 01:00N 47°52' E 035°06'0 0.1
2018-May-08 00:29N 47°52' E 035°06'0 0.0
2018-May-08 00:00N 47°52' E 035°06'0 0.0
2018-May-07 23:30N 47°52' E 035°06'0 0.0
2018-May-07 23:00N 47°52' E 035°06'0 0.0
2018-May-07 22:30N 47°52' E 035°06'0 0.0
2018-May-07 22:00N 47°52' E 035°06'0 0.0
2018-May-07 21:30N 47°52' E 035°06'0 0.0
2018-May-07 21:00N 47°52' E 035°06'0 0.0
2018-May-07 20:30N 47°52' E 035°06'0 0.0
2018-May-07 20:00N 47°52' E 035°06'0 0.0
2018-May-07 19:30N 47°52' E 035°06'0 0.0
2018-May-07 19:00N 47°52' E 035°06'0 0.0
2018-May-07 18:30N 47°52' E 035°06'0 0.0
2018-May-07 18:00N 47°52' E 035°06'0 0.0
2018-May-07 17:25N 47°52' E 035°06'0 0.0
2018-May-07 17:00N 47°52' E 035°06'0 0.0
2018-May-07 16:30N 47°52' E 035°06'0 0.1
2018-May-07 16:00N 47°52' E 035°06'0 0.1
2018-May-07 15:30N 47°52' E 035°06'0 0.0
2018-May-07 15:00N 47°52' E 035°06'0 0.0
2018-May-07 14:30N 47°52' E 035°06'0 0.0
2018-May-07 14:00N 47°52' E 035°06'0 0.0
2018-May-07 13:30N 47°52' E 035°06'0 0.0
2018-May-07 13:00N 47°52' E 035°06'0 0.0
2018-May-07 12:30N 47°52' E 035°06'0 0.0
2018-May-07 12:00N 47°52' E 035°06'0 0.0
2018-May-07 11:30N 47°52' E 035°06'0 0.0
2018-May-07 11:00N 47°52' E 035°06'0 0.0
2018-May-07 10:30N 47°52' E 035°06'0 0.0
2018-May-07 10:00N 47°52' E 035°06'0 0.0
2018-May-07 09:30N 47°52' E 035°06'0 0.0
2018-May-07 09:00N 47°52' E 035°06'0 0.0
2018-May-07 08:30N 47°52' E 035°06'0 0.0
2018-May-07 08:00N 47°52' E 035°06'0 0.0
2018-May-07 07:30N 47°52' E 035°06'0 0.0
2018-May-07 07:00N 47°52' E 035°06'0 0.0
2018-May-07 06:29N 47°52' E 035°06'0 0.0
2018-May-07 05:59N 47°52' E 035°06'0 0.0
2018-May-07 05:30N 47°52' E 035°06'0 0.0
2018-May-07 05:00N 47°52' E 035°06'0 0.0
2018-May-07 04:30N 47°52' E 035°06'0 0.0
2018-May-07 04:00N 47°52' E 035°06'0 0.0
2018-May-07 03:30N 47°52' E 035°06'0 0.0
2018-May-07 03:00N 47°52' E 035°06'0 0.0
2018-May-07 00:58N 47°52' E 035°06'0 0.1
2018-May-07 00:30N 47°52' E 035°06'10 2.4
2018-May-06 20:29N 47°43' E 035°13'  

Dump ship's entire track history